Time;durP1;ratioP1;P1;durP2;ratioP2;P2;SDS_P1;SDS_P2;PMS_P1;PMS_P2;Temp;Humidity;BMP_temperature;BMP_pressure;BME280_temperature;BME280_humidity;BME280_pressure;Samples;Min_cycle;Max_cycle;Signal;HPM_P1;HPM_P2
2021/08/06 00:02:32;;;;;;;3.00;1.32;;;;;;;14.68;97.32;97267.00;2220850;80;21021;-57
2021/08/06 00:05:33;;;;;;;3.42;1.10;;;;;;;14.66;97.43;97277.72;2220644;80;21033;-59
2021/08/06 00:08:34;;;;;;;1.40;0.93;;;;;;;14.66;97.55;97266.34;2220676;80;21476;-58
2021/08/06 00:11:35;;;;;;;3.93;1.23;;;;;;;14.64;97.31;97263.87;2221067;80;21557;-59
2021/08/06 00:14:35;;;;;;;2.35;1.27;;;;;;;14.64;97.43;97251.15;2220960;80;21340;-59
2021/08/06 00:17:36;;;;;;;3.52;1.30;;;;;;;14.62;97.01;97254.45;2220207;80;20990;-59
2021/08/06 00:20:36;;;;;;;2.87;1.30;;;;;;;14.60;97.15;97263.81;2220603;80;20973;-59
2021/08/06 00:23:37;;;;;;;3.05;0.98;;;;;;;14.59;97.12;97263.47;2220400;80;21065;-58
2021/08/06 00:26:38;;;;;;;4.10;1.10;;;;;;;14.60;97.33;97266.95;2220530;80;21589;-57
2021/08/06 00:29:38;;;;;;;3.80;1.17;;;;;;;14.59;97.22;97263.97;2220729;80;20947;-57
2021/08/06 00:32:39;;;;;;;2.62;1.10;;;;;;;14.55;97.05;97280.12;2220832;80;20962;-58
2021/08/06 00:35:39;;;;;;;3.75;1.12;;;;;;;14.53;97.21;97293.13;2220692;80;20939;-59
2021/08/06 00:38:40;;;;;;;1.65;0.88;;;;;;;14.50;97.09;97274.47;2220397;80;21124;-58
2021/08/06 00:41:41;;;;;;;3.35;1.35;;;;;;;14.48;97.22;97290.11;2220842;80;20977;-58
2021/08/06 00:44:41;;;;;;;2.65;1.45;;;;;;;14.45;97.51;97286.47;2220867;80;20969;-62
2021/08/06 00:47:42;;;;;;;1.80;1.32;;;;;;;14.41;97.79;97266.19;2220916;80;20981;-61
2021/08/06 00:50:42;;;;;;;2.25;1.50;;;;;;;14.38;97.58;97264.69;2220699;80;20970;-59
2021/08/06 00:53:42;;;;;;;3.15;1.50;;;;;;;14.37;97.89;97275.39;2220432;80;21516;-58
2021/08/06 00:56:43;;;;;;;3.95;1.60;;;;;;;14.35;98.36;97269.42;2220571;80;21026;-60
2021/08/06 00:59:44;;;;;;;4.10;1.80;;;;;;;14.35;98.06;97269.42;2220666;80;21002;-60
2021/08/06 01:02:44;;;;;;;4.62;2.02;;;;;;;14.32;98.42;97275.02;2220803;80;20954;-59
2021/08/06 01:05:44;;;;;;;4.20;1.90;;;;;;;14.31;98.36;97269.39;2220696;80;20957;-59
2021/08/06 01:08:45;;;;;;;4.65;1.92;;;;;;;14.31;98.59;97269.39;2220660;80;20973;-57
2021/08/06 01:11:46;;;;;;;3.95;1.65;;;;;;;14.31;98.17;97256.21;2220174;80;21484;-61
2021/08/06 01:14:46;;;;;;;5.20;2.08;;;;;;;14.33;98.39;97255.58;2220581;80;21061;-59
2021/08/06 01:17:47;;;;;;;4.70;2.00;;;;;;;14.32;98.73;97259.19;2220729;80;21020;-59
2021/08/06 01:20:47;;;;;;;6.25;2.00;;;;;;;14.31;98.59;97262.33;2220490;80;21040;-58
2021/08/06 01:23:48;;;;;;;6.03;1.95;;;;;;;14.30;99.29;97259.85;2220794;80;20970;-57
2021/08/06 01:26:48;;;;;;;4.60;1.92;;;;;;;14.30;99.08;97251.94;2220822;80;20963;-58
2021/08/06 01:29:48;;;;;;;4.90;2.17;;;;;;;14.29;99.29;97259.00;2220504;80;21022;-63
2021/08/06 01:32:49;;;;;;;3.08;1.85;;;;;;;14.31;99.14;97240.39;2220651;80;20978;-57
2021/08/06 01:35:49;;;;;;;3.83;2.10;;;;;;;14.32;99.32;97248.64;2220652;80;21485;-59
2021/08/06 01:38:51;;;;;;;3.35;1.90;;;;;;;14.31;99.33;97243.02;2220481;80;20989;-59
2021/08/06 01:41:52;;;;;;;4.53;2.15;;;;;;;14.28;99.54;97244.66;2220803;80;21053;-58
2021/08/06 01:44:52;;;;;;;5.83;2.33;;;;;;;14.27;99.78;97231.16;2220635;80;20954;-58
2021/08/06 01:47:53;;;;;;;5.30;2.02;;;;;;;14.25;99.93;97248.93;2220464;80;21002;-57
2021/08/06 01:50:53;;;;;;;4.05;2.27;;;;;;;14.23;100.00;97246.45;2220419;80;21592;-60
2021/08/06 01:53:54;;;;;;;4.80;2.27;;;;;;;14.22;100.00;97247.42;2220644;80;21469;-59
2021/08/06 01:56:55;;;;;;;4.45;2.10;;;;;;;14.21;100.00;97245.79;2220542;80;21530;-60
2021/08/06 01:59:55;;;;;;;4.17;2.10;;;;;;;14.21;100.00;97239.20;2220619;80;20990;-59
2021/08/06 02:02:56;;;;;;;6.42;2.33;;;;;;;14.21;100.00;97239.20;2220744;80;21001;-60
2021/08/06 02:05:56;;;;;;;3.60;1.82;;;;;;;14.20;100.00;97241.49;2220627;80;20981;-60
2021/08/06 02:08:57;;;;;;;4.87;2.00;;;;;;;14.20;100.00;97254.67;2220582;80;20950;-63
2021/08/06 02:11:57;;;;;;;4.20;2.08;;;;;;;14.19;100.00;97247.27;2220144;80;21060;-57
2021/08/06 02:14:58;;;;;;;5.95;2.27;;;;;;;14.19;100.00;97245.95;2220587;80;21476;-62
2021/08/06 02:17:58;;;;;;;3.27;1.98;;;;;;;14.17;100.00;97250.53;2220337;80;21017;-58
2021/08/06 02:20:58;;;;;;;3.12;1.80;;;;;;;14.16;100.00;97250.19;2220537;80;20951;-59
2021/08/06 02:23:59;;;;;;;3.50;1.90;;;;;;;14.15;100.00;97231.89;2220445;80;20973;-57
2021/08/06 02:26:59;;;;;;;4.12;2.08;;;;;;;14.14;100.00;97235.02;2220735;80;20981;-58
2021/08/06 02:30:00;;;;;;;3.37;2.08;;;;;;;14.15;100.00;97230.57;2220591;80;20965;-65
2021/08/06 02:33:00;;;;;;;3.12;1.77;;;;;;;14.15;100.00;97238.48;2220590;80;20985;-59
2021/08/06 02:36:01;;;;;;;3.75;1.77;;;;;;;14.14;100.00;97240.80;2220592;80;21488;-59
2021/08/06 02:39:01;;;;;;;3.85;1.80;;;;;;;14.12;100.00;97244.06;2220566;80;21453;-58
2021/08/06 02:42:02;;;;;;;4.33;1.75;;;;;;;14.10;100.00;97241.59;2220461;80;21054;-59
2021/08/06 02:45:02;;;;;;;3.83;1.57;;;;;;;14.09;100.00;97234.65;2220565;80;21068;-58
2021/08/06 02:48:03;;;;;;;2.47;1.30;;;;;;;14.07;100.00;97248.49;2220752;80;20969;-59
2021/08/06 02:51:03;;;;;;;4.28;1.27;;;;;;;14.07;100.00;97245.03;2220581;80;20997;-62
2021/08/06 02:54:04;;;;;;;1.70;1.10;;;;;;;14.04;100.00;97231.67;2220566;80;20997;-58
2021/08/06 02:57:05;;;;;;;3.20;1.50;;;;;;;14.02;100.00;97228.34;2220451;80;21078;-62
2021/08/06 03:00:05;;;;;;;2.00;1.25;;;;;;;14.01;100.00;97230.66;2220432;80;20958;-58
2021/08/06 03:03:06;;;;;;;3.30;1.00;;;;;;;14.00;100.00;97239.04;2220139;80;21073;-63
2021/08/06 03:06:06;;;;;;;3.15;1.10;;;;;;;13.97;100.00;97242.49;2220566;80;21044;-63
2021/08/06 03:09:07;;;;;;;4.70;1.15;;;;;;;13.94;100.00;97255.48;2220525;80;20992;-58
2021/08/06 03:12:07;;;;;;;4.70;1.00;;;;;;;13.90;100.00;97235.68;2220259;80;21017;-57
2021/08/06 03:15:08;;;;;;;2.90;1.32;;;;;;;13.89;100.00;97235.83;2220684;80;21009;-57
2021/08/06 03:18:11;;;;;;;1.67;1.00;;;;;;;13.88;100.00;97238.97;2220738;80;21014;-58
2021/08/06 03:21:10;;;;;;;4.20;1.45;;;;;;;13.85;100.00;97245.88;2190418;80;20985;-59
2021/08/06 03:24:11;;;;;;;1.82;0.82;;;;;;;13.84;100.00;97252.11;2210372;81;20974;-64
2021/08/06 03:27:11;;;;;;;2.05;1.10;;;;;;;13.83;100.00;97262.30;2210345;81;20971;-58
2021/08/06 03:30:12;;;;;;;1.30;0.85;;;;;;;13.83;100.00;97249.13;2210418;81;21006;-59
2021/08/06 03:33:12;;;;;;;3.87;1.00;;;;;;;13.83;100.00;97244.70;2210508;81;20998;-61
2021/08/06 03:36:13;;;;;;;2.25;1.15;;;;;;;13.84;100.00;97243.70;2210633;81;21038;-62
2021/08/06 03:39:14;;;;;;;2.45;1.00;;;;;;;13.83;100.00;97255.25;2210255;81;21056;-60
2021/08/06 03:42:14;;;;;;;2.30;1.30;;;;;;;13.82;100.00;97258.00;2210519;81;21430;-57
2021/08/06 03:45:14;;;;;;;4.28;1.62;;;;;;;13.82;100.00;97248.78;2210507;81;21436;-57
2021/08/06 03:48:15;;;;;;;3.90;1.60;;;;;;;13.82;100.00;97248.78;2210463;81;21050;-57
2021/08/06 03:51:15;;;;;;;2.25;1.30;;;;;;;13.83;100.00;97254.41;2210589;81;20989;-57
2021/08/06 03:54:16;;;;;;;2.58;1.40;;;;;;;13.83;100.00;97260.52;2210773;81;21021;-63
2021/08/06 03:57:16;;;;;;;2.15;1.40;;;;;;;13.82;100.00;97248.78;2210103;81;21022;-59
2021/08/06 04:00:17;;;;;;;2.37;1.40;;;;;;;13.82;100.00;97247.47;2210486;81;20986;-60
2021/08/06 04:03:18;;;;;;;2.87;1.27;;;;;;;13.82;100.00;97261.96;2210430;81;20998;-58
2021/08/06 04:06:19;;;;;;;1.95;1.10;;;;;;;13.82;100.00;97261.96;2210355;81;21046;-58
2021/08/06 04:09:19;;;;;;;4.03;1.22;;;;;;;13.81;100.00;97259.83;2210453;81;21054;-59
2021/08/06 04:12:19;;;;;;;2.70;1.20;;;;;;;13.80;100.00;97265.25;2210227;81;21010;-61
2021/08/06 04:15:20;;;;;;;2.90;0.98;;;;;;;13.79;100.00;97248.63;2210732;81;20990;-59
2021/08/06 04:18:20;;;;;;;1.27;0.80;;;;;;;13.77;100.00;97254.52;2209950;81;21033;-58
2021/08/06 04:21:21;;;;;;;1.98;1.05;;;;;;;13.76;100.00;97255.48;2210709;81;21009;-57
2021/08/06 04:24:21;;;;;;;2.70;1.05;;;;;;;13.77;100.00;97258.97;2220859;80;21005;-64
2021/08/06 04:27:22;;;;;;;3.37;1.12;;;;;;;13.76;100.00;97259.94;2220650;80;20982;-57
2021/08/06 04:30:22;;;;;;;2.27;1.17;;;;;;;13.75;100.00;97263.08;2220561;80;20973;-58
2021/08/06 04:33:22;;;;;;;3.05;0.98;;;;;;;13.76;100.00;97286.30;2220529;80;21488;-61
2021/08/06 04:36:23;;;;;;;2.42;0.82;;;;;;;13.75;100.00;97266.18;2220588;80;20966;-61
2021/08/06 04:39:23;;;;;;;4.12;1.10;;;;;;;13.75;100.00;97268.81;2220819;80;21017;-58
2021/08/06 04:42:24;;;;;;;2.02;0.50;;;;;;;13.74;100.00;97267.19;2220877;80;20986;-59
2021/08/06 04:45:25;;;;;;;1.82;0.60;;;;;;;13.75;100.00;97286.80;2221174;80;20942;-58
2021/08/06 04:48:26;;;;;;;1.55;0.72;;;;;;;13.75;100.00;97280.67;2220573;80;21393;-58
2021/08/06 04:51:27;;;;;;;1.12;0.53;;;;;;;13.74;100.00;97271.14;2220558;80;21044;-57
2021/08/06 04:54:27;;;;;;;1.92;0.40;;;;;;;13.75;100.00;97279.36;2220840;80;21021;-58
2021/08/06 04:57:27;;;;;;;2.27;0.30;;;;;;;13.75;100.00;97283.31;2220917;80;20989;-60
2021/08/06 05:00:28;;;;;;;0.47;0.30;;;;;;;13.75;100.00;97269.66;2220711;80;20957;-61
2021/08/06 05:03:28;;;;;;;2.60;0.40;;;;;;;13.76;100.00;97285.79;2220386;80;21044;-61
2021/08/06 05:06:29;;;;;;;0.55;0.35;;;;;;;13.75;100.00;97292.53;2220526;80;21026;-57
2021/08/06 05:09:29;;;;;;;1.40;0.30;;;;;;;13.72;100.00;97284.47;2220621;80;21917;-57
2021/08/06 05:12:30;;;;;;;1.10;0.50;;;;;;;13.72;100.00;97303.37;2220533;80;20977;-58
2021/08/06 05:15:30;;;;;;;1.77;0.57;;;;;;;13.69;100.00;97287.37;2220777;80;21009;-57
2021/08/06 05:18:31;;;;;;;2.77;0.70;;;;;;;13.70;100.00;97289.03;2221004;80;21009;-58
2021/08/06 05:21:32;;;;;;;2.30;0.50;;;;;;;13.67;100.00;97304.66;2220177;80;21010;-59
2021/08/06 05:24:32;;;;;;;2.47;0.78;;;;;;;13.65;100.00;97321.61;2210311;80;21509;-62
2021/08/06 05:27:32;;;;;;;1.55;0.75;;;;;;;13.63;100.00;97296.73;2210353;81;21489;-57
2021/08/06 05:30:33;;;;;;;2.00;0.60;;;;;;;13.64;100.00;97298.88;2210280;81;21049;-58
2021/08/06 05:33:33;;;;;;;0.70;0.53;;;;;;;13.63;100.00;97294.57;2210313;81;20986;-59
2021/08/06 05:36:34;;;;;;;2.35;0.60;;;;;;;13.65;100.00;97288.68;2210663;81;20982;-58
2021/08/06 05:39:34;;;;;;;1.27;0.70;;;;;;;13.66;100.00;97343.00;2210474;81;21022;-59
2021/08/06 05:42:35;;;;;;;3.27;0.90;;;;;;;13.67;100.00;97291.98;2210402;81;20971;-58
2021/08/06 05:45:35;;;;;;;4.22;0.68;;;;;;;13.68;100.00;97298.91;2210417;81;20963;-57
2021/08/06 05:48:35;;;;;;;2.05;0.50;;;;;;;13.72;100.00;97303.37;2210242;81;21469;-58
2021/08/06 05:51:36;;;;;;;4.83;0.82;;;;;;;13.72;100.00;97308.65;2210239;81;21026;-60
2021/08/06 05:54:36;;;;;;;1.60;0.78;;;;;;;13.74;100.00;97312.80;2210264;81;21006;-59
2021/08/06 05:57:37;;;;;;;0.93;0.68;;;;;;;13.77;100.00;97307.22;2210341;81;21062;-59
2021/08/06 06:00:37;;;;;;;1.10;0.60;;;;;;;13.79;100.00;97312.34;2210176;81;20995;-58
2021/08/06 06:03:38;;;;;;;1.27;0.60;;;;;;;13.83;100.00;97310.59;2210487;81;20970;-58
2021/08/06 06:06:38;;;;;;;1.17;0.70;;;;;;;13.87;100.00;97319.00;2210635;81;21010;-59
2021/08/06 06:09:39;;;;;;;0.80;0.50;;;;;;;13.91;100.00;97319.55;2210599;81;21014;-58
2021/08/06 06:12:39;;;;;;;2.75;0.70;;;;;;;13.93;100.00;97327.62;2210321;81;20951;-62
2021/08/06 06:15:39;;;;;;;2.35;0.90;;;;;;;13.98;100.00;97320.09;2210092;81;20970;-59
2021/08/06 06:18:40;;;;;;;3.83;0.88;;;;;;;14.06;100.00;97321.14;2209572;80;21437;-58
2021/08/06 06:21:40;;;;;;;3.02;0.68;;;;;;;14.02;100.00;97317.50;2190963;81;20966;-59
2021/08/06 06:24:41;;;;;;;3.08;0.75;;;;;;;13.99;100.00;97314.32;2197334;81;21127;-61
2021/08/06 06:27:41;;;;;;;1.55;0.82;;;;;;;14.03;100.00;97337.58;2197785;81;20934;-58
2021/08/06 06:30:42;;;;;;;1.00;0.62;;;;;;;14.00;100.00;97336.58;2197880;81;21025;-59
2021/08/06 06:33:42;;;;;;;0.82;0.60;;;;;;;14.01;100.00;97337.42;2197760;81;21061;-58
2021/08/06 06:36:43;;;;;;;2.55;0.45;;;;;;;13.99;100.00;97359.13;2197301;80;21044;-58
2021/08/06 06:39:43;;;;;;;4.20;0.80;;;;;;;13.98;100.00;97339.86;2210225;80;20957;-59
2021/08/06 06:42:44;;;;;;;2.58;0.60;;;;;;;13.97;100.00;97346.11;2220377;80;21465;-58
2021/08/06 06:45:45;;;;;;;1.40;0.60;;;;;;;14.01;100.00;97346.14;2220745;80;21062;-62
2021/08/06 06:48:45;;;;;;;1.15;0.70;;;;;;;14.07;100.00;97349.17;2220023;80;20968;-58
2021/08/06 06:51:46;;;;;;;1.20;0.60;;;;;;;14.08;100.00;97350.80;2220249;80;21914;-59
2021/08/06 06:54:46;;;;;;;0.68;0.40;;;;;;;14.06;100.00;97376.00;2220620;80;21007;-58
2021/08/06 06:57:49;;;;;;;2.10;0.93;;;;;;;14.08;100.00;97363.98;2220406;80;21044;-58
2021/08/06 07:00:50;;;;;;;1.85;0.78;;;;;;;14.06;100.00;97354.91;2189956;80;20956;-58
2021/08/06 07:03:50;;;;;;;3.05;0.98;;;;;;;14.10;100.00;97366.00;2220651;80;20949;-63
2021/08/06 07:06:51;;;;;;;4.42;1.20;;;;;;;14.09;100.00;97373.06;2220546;80;21000;-61
2021/08/06 07:09:51;;;;;;;6.15;1.35;;;;;;;14.12;100.00;97369.30;2220366;80;21016;-58
2021/08/06 07:12:52;;;;;;;1.50;0.95;;;;;;;14.12;100.00;97367.51;2220310;80;21011;-57
2021/08/06 07:15:52;;;;;;;1.75;1.10;;;;;;;14.16;100.00;97363.56;2220388;80;21046;-58
2021/08/06 07:18:53;;;;;;;3.72;1.15;;;;;;;14.18;100.00;97378.76;2220124;80;21695;-58
2021/08/06 07:21:54;;;;;;;2.50;1.17;;;;;;;14.16;100.00;97378.56;2220195;80;20998;-64
2021/08/06 07:24:54;;;;;;;2.22;1.15;;;;;;;14.20;100.00;97383.88;2210652;80;21057;-59
2021/08/06 07:27:55;;;;;;;4.30;1.30;;;;;;;14.17;100.00;97390.27;2210080;81;20990;-59
2021/08/06 07:30:56;;;;;;;3.72;1.62;;;;;;;14.11;100.00;97386.12;2209916;81;21504;-62
2021/08/06 07:33:56;;;;;;;3.20;1.20;;;;;;;14.09;100.00;97392.02;2210128;81;21021;-58
2021/08/06 07:36:56;;;;;;;3.12;1.47;;;;;;;14.03;100.00;97395.58;2210266;81;20998;-58
2021/08/06 07:39:57;;;;;;;2.40;1.30;;;;;;;14.01;100.00;97405.45;2210123;81;20970;-57
2021/08/06 07:42:57;;;;;;;2.35;1.35;;;;;;;14.02;100.00;97395.73;2210230;81;21015;-58
2021/08/06 07:45:58;;;;;;;5.20;1.72;;;;;;;13.99;100.00;97394.25;2210255;80;20974;-62
2021/08/06 07:48:58;;;;;;;4.15;1.55;;;;;;;13.96;100.00;97398.48;2209981;81;21022;-64
2021/08/06 07:51:59;;;;;;;4.65;1.52;;;;;;;13.92;100.00;97411.64;2210326;80;20982;-57
2021/08/06 07:54:59;;;;;;;5.33;1.62;;;;;;;13.90;100.00;97429.39;2210123;81;21065;-58
2021/08/06 07:58:00;;;;;;;3.70;1.60;;;;;;;13.91;100.00;97413.11;2209995;81;21497;-62
2021/08/06 08:01:01;;;;;;;3.87;1.70;;;;;;;13.88;100.00;97429.20;2209405;81;21489;-58
2021/08/06 08:04:01;;;;;;;4.17;1.77;;;;;;;13.85;100.00;97417.98;2210458;81;20989;-62
2021/08/06 08:07:02;;;;;;;4.42;1.60;;;;;;;13.86;100.00;97429.34;2210363;81;21031;-65
2021/08/06 08:10:02;;;;;;;6.60;1.98;;;;;;;13.86;100.00;97433.30;2210050;81;20970;-59
2021/08/06 08:13:02;;;;;;;6.05;1.55;;;;;;;13.83;100.00;97443.67;2210107;81;21480;-59
2021/08/06 08:16:03;;;;;;;7.42;1.77;;;;;;;13.81;100.00;97442.97;2210168;81;21571;-58
2021/08/06 08:19:04;;;;;;;5.12;1.77;;;;;;;13.84;100.00;97454.53;2209922;81;20969;-58
2021/08/06 08:22:04;;;;;;;6.58;2.42;;;;;;;13.80;100.00;97440.48;2209585;81;20977;-60
2021/08/06 08:25:05;;;;;;;8.38;2.02;;;;;;;13.83;100.00;97456.85;2219451;80;21021;-58
2021/08/06 08:28:06;;;;;;;3.90;1.85;;;;;;;13.81;100.00;97457.47;2221140;80;21001;-58
2021/08/06 08:31:06;;;;;;;6.95;2.17;;;;;;;13.81;100.00;97471.14;2220892;80;21039;-61
2021/08/06 08:34:06;;;;;;;7.60;2.52;;;;;;;13.82;100.00;97464.88;2220901;80;21031;-60
2021/08/06 08:37:07;;;;;;;6.22;2.08;;;;;;;13.79;100.00;97459.44;2220862;80;21506;-58
2021/08/06 08:40:08;;;;;;;7.30;2.12;;;;;;;13.83;100.00;97463.91;2220845;80;20960;-58
2021/08/06 08:43:08;;;;;;;5.80;2.40;;;;;;;13.84;100.00;97477.44;2220656;80;21043;-58
2021/08/06 08:46:08;;;;;;;7.15;2.30;;;;;;;13.84;100.00;97466.39;2221171;80;21009;-60
2021/08/06 08:49:09;;;;;;;10.48;2.50;;;;;;;13.87;100.00;97471.86;2220954;80;20965;-58
2021/08/06 08:52:10;;;;;;;4.55;2.12;;;;;;;13.87;100.00;97471.86;2220578;80;20996;-57
2021/08/06 08:55:10;;;;;;;9.85;2.47;;;;;;;13.86;100.00;97477.63;2220694;80;21515;-59
2021/08/06 08:58:11;;;;;;;11.05;3.15;;;;;;;13.90;100.00;97482.11;2220838;80;20984;-62
2021/08/06 09:01:12;;;;;;;10.18;2.10;;;;;;;13.93;100.00;97487.58;2220415;80;21008;-63
2021/08/06 09:04:13;;;;;;;8.73;2.37;;;;;;;13.95;100.00;97482.98;2220866;80;21134;-61
2021/08/06 09:07:13;;;;;;;8.20;2.37;;;;;;;13.94;100.00;97491.88;2221127;80;21006;-59
2021/08/06 09:10:16;;;;;;;6.83;2.70;;;;;;;13.92;100.00;97505.21;2220839;80;21040;-61
2021/08/06 09:13:16;;;;;;;6.50;2.30;;;;;;;13.91;100.00;97500.91;2192852;80;21441;-59
2021/08/06 09:16:16;;;;;;;10.08;2.33;;;;;;;13.86;100.00;97498.72;2221187;80;21040;-58
2021/08/06 09:19:17;;;;;;;10.20;2.60;;;;;;;13.83;100.00;97492.43;2221098;80;21044;-61
2021/08/06 09:22:18;;;;;;;8.68;2.60;;;;;;;13.85;100.00;97511.55;2220463;80;21575;-62
2021/08/06 09:25:18;;;;;;;5.47;2.52;;;;;;;13.85;100.00;97516.81;2215238;80;20978;-58
2021/08/06 09:28:22;;;;;;;7.58;2.60;;;;;;;13.86;100.00;97518.48;2188293;80;22444;-59
2021/08/06 09:31:22;;;;;;;12.43;2.77;;;;;;;13.85;100.00;97519.95;2213425;80;20999;-60
2021/08/06 09:34:24;;;;;;;14.10;3.10;;;;;;;13.82;100.00;97516.27;2201013;80;21495;-58
2021/08/06 09:37:24;;;;;;;5.90;2.60;;;;;;;13.82;100.00;97521.06;2154667;82;21013;-63
2021/08/06 09:40:25;;;;;;;6.33;2.52;;;;;;;13.90;100.00;97531.37;2173643;81;20953;-59
2021/08/06 09:43:26;;;;;;;7.85;2.60;;;;;;;13.89;100.00;97534.97;2157304;82;21028;-60
2021/08/06 09:46:26;;;;;;;5.28;2.35;;;;;;;13.88;100.00;97542.53;2178694;81;21542;-62
2021/08/06 09:49:27;;;;;;;4.42;2.25;;;;;;;13.94;100.00;97523.52;2173582;81;20939;-59
2021/08/06 09:52:28;;;;;;;7.40;2.60;;;;;;;14.01;100.00;97520.62;2142167;83;21028;-58
2021/08/06 09:55:31;;;;;;;4.25;2.15;;;;;;;14.02;100.00;97522.27;2141634;83;21096;-62
2021/08/06 09:58:31;;;;;;;9.68;2.55;;;;;;;13.99;100.00;97544.97;2122888;82;21027;-59
2021/08/06 10:01:31;;;;;;;6.83;2.60;;;;;;;13.94;100.00;97538.02;2180205;81;21033;-62
2021/08/06 10:04:32;;;;;;;6.12;2.40;;;;;;;14.01;100.00;97543.86;2180531;82;21071;-60
2021/08/06 10:07:32;;;;;;;6.10;2.37;;;;;;;14.03;100.00;97540.57;2180669;82;21005;-57
2021/08/06 10:10:34;;;;;;;7.15;2.50;;;;;;;14.02;100.00;97545.99;2180965;81;21459;-60
2021/08/06 10:13:35;;;;;;;5.47;2.42;;;;;;;14.02;100.00;97556.06;2180025;82;21036;-63
2021/08/06 10:16:36;;;;;;;8.80;2.67;;;;;;;13.94;99.86;97558.59;2180663;82;21107;-62
2021/08/06 10:19:37;;;;;;;6.25;2.70;;;;;;;13.91;100.00;97553.63;2180709;81;21522;-60
2021/08/06 10:22:37;;;;;;;8.93;2.65;;;;;;;13.90;100.00;97557.72;2180498;82;20984;-58
2021/08/06 10:25:37;;;;;;;8.53;2.90;;;;;;;13.77;100.00;97541.74;2156758;81;21028;-59
2021/08/06 10:28:38;;;;;;;6.33;2.52;;;;;;;13.85;100.00;97567.39;2167533;81;20992;-66
2021/08/06 10:31:38;;;;;;;10.78;3.02;;;;;;;13.83;100.00;97564.91;2167317;81;20989;-61
2021/08/06 10:34:39;;;;;;;6.87;2.60;;;;;;;13.83;100.00;97571.95;2166855;81;20981;-62
2021/08/06 10:37:39;;;;;;;8.75;2.90;;;;;;;13.77;99.97;97581.27;2165693;81;21019;-62
2021/08/06 10:40:40;;;;;;;7.08;2.75;;;;;;;13.75;99.22;97598.19;2165746;82;21004;-60
2021/08/06 10:43:40;;;;;;;6.83;2.70;;;;;;;13.74;99.84;97595.23;2166531;81;21023;-66
2021/08/06 10:46:40;;;;;;;6.97;2.50;;;;;;;13.69;98.72;97604.39;2167210;82;21012;-63
2021/08/06 10:49:41;;;;;;;6.17;2.33;;;;;;;13.68;98.74;97611.12;2167952;82;21467;-58
2021/08/06 10:52:41;;;;;;;6.20;2.30;;;;;;;13.64;98.50;97600.03;2167826;82;21008;-58
2021/08/06 10:55:42;;;;;;;6.40;2.58;;;;;;;13.65;98.98;97600.87;2216794;80;21008;-58
2021/08/06 10:58:42;;;;;;;7.00;2.60;;;;;;;13.66;98.51;97622.28;2216975;80;20976;-58
2021/08/06 11:01:43;;;;;;;11.33;2.72;;;;;;;13.64;98.05;97611.89;2217253;80;20961;-61
2021/08/06 11:04:44;;;;;;;9.53;2.77;;;;;;;13.63;98.43;97623.89;2217436;80;21016;-60
2021/08/06 11:07:45;;;;;;;6.67;2.75;;;;;;;13.62;99.13;97626.17;2217124;80;21025;-58
2021/08/06 11:10:46;;;;;;;7.40;2.83;;;;;;;13.60;99.64;97622.36;2217346;80;21401;-57
2021/08/06 11:13:46;;;;;;;8.90;2.85;;;;;;;13.60;99.97;97621.05;2204624;80;20999;-58
2021/08/06 11:16:47;;;;;;;9.73;3.17;;;;;;;13.61;99.84;97620.08;2177828;82;20999;-59
2021/08/06 11:19:47;;;;;;;11.55;3.75;;;;;;;13.64;100.00;97607.11;2208899;80;20934;-58
2021/08/06 11:22:48;;;;;;;10.00;3.60;;;;;;;13.69;99.88;97620.67;2217287;80;21052;-58
2021/08/06 11:25:49;;;;;;;11.97;3.50;;;;;;;13.74;100.00;97622.41;2225250;80;21024;-61
2021/08/06 11:28:50;;;;;;;9.80;3.30;;;;;;;13.82;99.24;97631.75;2227452;80;21028;-62
2021/08/06 11:31:51;;;;;;;11.48;3.60;;;;;;;13.88;99.58;97634.30;2226745;80;20997;-59
2021/08/06 11:34:51;;;;;;;11.00;3.70;;;;;;;13.91;99.03;97629.23;2227634;80;20973;-58
2021/08/06 11:37:52;;;;;;;15.30;3.50;;;;;;;13.88;99.47;97621.59;2227156;80;20973;-59
2021/08/06 11:40:55;;;;;;;8.03;3.30;;;;;;;13.85;99.43;97635.41;2217524;80;20971;-66
2021/08/06 11:43:54;;;;;;;8.88;3.35;;;;;;;13.83;99.82;97631.25;2192607;80;20957;-58
2021/08/06 11:46:55;;;;;;;10.32;3.65;;;;;;;13.79;98.61;97628.09;2221897;80;20991;-59
2021/08/06 11:49:56;;;;;;;10.63;3.37;;;;;;;13.77;99.72;97631.34;2226988;80;21474;-60
2021/08/06 11:52:56;;;;;;;11.80;3.40;;;;;;;13.73;99.44;97624.69;2226984;80;21045;-63
2021/08/06 11:55:56;;;;;;;10.15;3.65;;;;;;;13.71;99.75;97635.05;2227431;80;21050;-58
2021/08/06 11:58:57;;;;;;;8.48;3.02;;;;;;;13.71;100.00;97636.38;2227103;80;21023;-66
2021/08/06 12:01:57;;;;;;;9.83;3.55;;;;;;;13.69;100.00;97632.06;2227285;80;21044;-62
2021/08/06 12:04:59;;;;;;;8.20;3.30;;;;;;;13.73;100.00;97642.31;2227159;80;21491;-64
2021/08/06 12:07:59;;;;;;;6.75;3.02;;;;;;;13.78;100.00;97638.78;2227125;80;20963;-59
2021/08/06 12:10:59;;;;;;;6.92;2.85;;;;;;;13.84;100.00;97655.33;2227575;80;20937;-68
2021/08/06 12:14:02;;;;;;;7.15;2.77;;;;;;;13.91;100.00;97666.14;2227628;80;20938;-61
2021/08/06 12:17:02;;;;;;;6.47;2.80;;;;;;;13.91;100.00;97660.87;2227510;80;21021;-59
2021/08/06 12:20:03;;;;;;;9.33;3.12;;;;;;;13.95;100.00;97652.99;2227104;80;20942;-62
2021/08/06 12:23:03;;;;;;;13.28;3.30;;;;;;;13.97;100.00;97655.02;2227389;80;21021;-58
2021/08/06 12:26:04;;;;;;;9.73;3.17;;;;;;;13.94;100.00;97661.40;2218135;80;21506;-62
2021/08/06 12:29:06;;;;;;;6.42;2.90;;;;;;;14.01;100.00;97674.34;2216873;80;21457;-62
2021/08/06 12:32:06;;;;;;;;;;;;;;;14.12;100.00;97672.50;2219121;80;21060;-59
2021/08/06 12:35:07;;;;;;;10.23;3.00;;;;;;;14.37;100.00;97667.90;2216054;80;20183;-58
2021/08/06 12:38:08;;;;;;;8.78;3.50;;;;;;;14.59;100.00;97661.06;2216748;80;22341;-58
2021/08/06 12:41:08;;;;;;;12.50;3.90;;;;;;;14.50;98.37;97666.74;2216846;80;21633;-64
2021/08/06 12:44:09;;;;;;;11.28;3.52;;;;;;;14.41;99.51;97664.96;2216578;80;21026;-58
2021/08/06 12:47:11;;;;;;;8.03;3.17;;;;;;;14.29;99.68;97661.19;2216858;80;21001;-61
2021/08/06 12:50:11;;;;;;;11.18;3.37;;;;;;;14.19;100.00;97663.05;2186885;80;21081;-60
2021/08/06 12:53:12;;;;;;;10.63;3.62;;;;;;;14.15;100.00;97665.62;2216970;80;20990;-58
2021/08/06 12:56:13;;;;;;;10.63;3.90;;;;;;;14.09;100.00;97675.44;2217129;80;21012;-63
2021/08/06 12:59:13;;;;;;;10.75;3.35;;;;;;;14.10;100.00;97690.29;2216867;80;20962;-63
2021/08/06 13:02:13;;;;;;;7.05;3.08;;;;;;;14.09;99.71;97689.94;2216974;80;20989;-62
2021/08/06 13:05:14;;;;;;;7.55;2.95;;;;;;;14.13;98.19;97697.41;2216873;80;21050;-60
2021/08/06 13:08:17;;;;;;;8.73;2.92;;;;;;;14.18;98.08;97700.95;2216957;80;21010;-59
2021/08/06 13:11:18;;;;;;;;;;;;;;;14.23;98.25;97713.20;2218529;80;21531;-60
2021/08/06 13:14:19;;;;;;;11.73;3.45;;;;;;;14.28;97.25;97712.30;2216928;80;20112;-64
2021/08/06 13:17:19;;;;;;;8.58;3.00;;;;;;;14.35;97.39;97717.81;2216972;80;21555;-66
2021/08/06 13:20:20;;;;;;;9.25;3.35;;;;;;;14.47;97.12;97723.27;2216941;80;21460;-71
2021/08/06 13:23:20;;;;;;;8.43;2.72;;;;;;;14.62;95.59;97718.35;2217426;80;20970;-61
2021/08/06 13:26:21;;;;;;;10.72;2.83;;;;;;;14.69;95.99;97720.75;2216686;80;21065;-65
2021/08/06 13:29:21;;;;;;;11.57;3.20;;;;;;;14.74;93.06;97725.61;2217352;80;20970;-62
2021/08/06 13:32:22;;;;;;;6.05;2.58;;;;;;;14.77;93.73;97725.78;2216832;80;20981;-68
2021/08/06 13:35:22;;;;;;;8.63;2.55;;;;;;;14.71;92.70;97735.97;2217019;80;20932;-58
2021/08/06 13:38:23;;;;;;;9.18;3.02;;;;;;;14.74;93.16;97729.57;2216969;80;21455;-59
2021/08/06 13:41:23;;;;;;;7.50;2.60;;;;;;;14.81;93.29;97727.16;2216871;80;21004;-59
2021/08/06 13:44:24;;;;;;;10.85;2.77;;;;;;;14.86;92.09;97733.66;2217181;80;21023;-60
2021/08/06 13:47:24;;;;;;;9.45;2.70;;;;;;;14.93;92.15;97733.91;2216832;80;21067;-61
2021/08/06 13:50:24;;;;;;;7.90;2.45;;;;;;;15.02;90.58;97739.61;2217050;80;20973;-65
2021/08/06 13:53:25;;;;;;;6.72;2.30;;;;;;;15.06;89.10;97738.84;2217030;80;20993;-60
2021/08/06 13:56:26;;;;;;;9.03;2.60;;;;;;;15.12;90.35;97761.17;2216996;80;21495;-61
2021/08/06 13:59:27;;;;;;;7.22;2.30;;;;;;;15.09;88.83;97753.06;2216944;80;21574;-60
2021/08/06 14:02:27;;;;;;;8.28;2.42;;;;;;;15.06;89.06;97762.60;2217242;80;20973;-59